Abo Alyssa — ER2655 — position and weather

sailwx.info

Track history (hours):
 
Tides and Currents Weather Stations Pressure Air Temp Water Temp Dewpoint Dewpoint Depression Visibility Wind Speed Wind Dir Waves Ship Positions

Abo Alyssa

Last reported at 2018-Jul-16 04:42 UTC. Time now 2018-Jul-16 15:58 UTC.
Position N 39°51' E 025°47'.

Length 95 m; draft 4.6 m.

Type: Cargo ship. MMSI: 214182655.

Date/timePositionNaut miles runAvg speedWind from/ knotsBaromVisibWave heightAir tempDewpointWater temp
2018-Jul-16 04:42N 39°51' E 025°47'210.2
2018-Jul-16 04:30N 39°53' E 025°49'5 9.8
2018-Jul-16 04:00N 39°56' E 025°53'173 4.7
2018-Jul-14 15:30N 41°48' E 028°48'4 9.0
2018-Jul-14 15:00N 41°52' E 028°46'5 8.9
2018-Jul-14 14:29N 41°56' E 028°43'9 8.8
2018-Jul-14 13:30N 42°04' E 028°38'54 8.8
2018-Jul-14 07:24N 42°53' E 028°09'4 9.5
2018-Jul-14 07:00N 42°57' E 028°07'5 9.4
2018-Jul-14 06:30N 43°01' E 028°05'5 9.4
2018-Jul-14 06:00N 43°05' E 028°02'5 9.6
2018-Jul-14 05:29N 43°10' E 027°59'2 0.0
2018-Jul-12 01:55N 43°11' E 027°57'1 2.3
2018-Jul-12 01:29N 43°11' E 027°58'1 2.9
2018-Jul-12 01:00N 43°12' E 027°60'0 0.8
2018-Jul-12 00:30N 43°11' E 027°59'1 1.1
2018-Jul-12 00:00N 43°12' E 027°60'5 9.3
2018-Jul-11 23:30N 43°14' E 028°06'5 9.5
2018-Jul-11 22:59N 43°15' E 028°12'5 9.6
2018-Jul-11 22:30N 43°17' E 028°18'15 9.4
2018-Jul-11 20:55N 43°26' E 028°35'4 9.9
2018-Jul-11 20:30N 43°28' E 028°39'5 9.6
2018-Jul-11 20:00N 43°31' E 028°45'4 9.0
2018-Jul-11 19:30N 43°34' E 028°49'4 8.9
2018-Jul-11 19:00N 43°38' E 028°50'5 9.4
2018-Jul-11 18:30N 43°43' E 028°50'5 9.5
2018-Jul-11 18:00N 43°48' E 028°50'5 9.5
2018-Jul-11 17:30N 43°52' E 028°49'5 9.3
2018-Jul-11 17:00N 43°57' E 028°49'5 9.0
2018-Jul-11 16:30N 44°01' E 028°46'5 9.0
2018-Jul-11 16:00N 44°05' E 028°43'3 6.4
2018-Jul-11 15:30N 44°08' E 028°41'2 4.9
2018-Jul-11 15:00N 44°10' E 028°39'0 0.6
2018-Jul-11 14:30N 44°10' E 028°39'0 0.0
2018-Jul-11 14:00N 44°10' E 028°39'0 0.0
2018-Jul-11 13:30N 44°10' E 028°39'0 0.0
2018-Jul-11 13:00N 44°10' E 028°39'0 0.0
2018-Jul-11 12:30N 44°10' E 028°39'0 0.0
2018-Jul-11 12:00N 44°10' E 028°39'0 0.0
2018-Jul-11 11:30N 44°10' E 028°39'0 0.0
2018-Jul-11 11:00N 44°10' E 028°39'0 0.0
2018-Jul-11 10:30N 44°10' E 028°39'0 0.0
2018-Jul-11 10:00N 44°10' E 028°39'0 0.0
2018-Jul-11 09:30N 44°10' E 028°39'0 0.0
2018-Jul-11 09:00N 44°10' E 028°39'0 0.0
2018-Jul-11 08:30N 44°10' E 028°39'0 0.0
2018-Jul-11 08:00N 44°10' E 028°39'0 0.0
2018-Jul-11 07:30N 44°10' E 028°39'0 0.0
2018-Jul-11 07:00N 44°10' E 028°39'0 0.0
2018-Jul-11 06:30N 44°10' E 028°39'0 0.0
2018-Jul-11 06:00N 44°10' E 028°39'0 0.0
2018-Jul-11 05:30N 44°10' E 028°39'0 0.0
2018-Jul-11 05:00N 44°10' E 028°39'0 0.0
2018-Jul-11 04:30N 44°10' E 028°39'0 0.0
2018-Jul-11 04:00N 44°10' E 028°39'0 0.0
2018-Jul-11 03:30N 44°10' E 028°39'0 0.0
2018-Jul-11 03:00N 44°10' E 028°39'0 0.0
2018-Jul-11 02:30N 44°10' E 028°39'0 0.0
2018-Jul-11 02:00N 44°10' E 028°39'0 0.0
2018-Jul-11 01:30N 44°10' E 028°39'0 0.0
2018-Jul-11 01:00N 44°10' E 028°39'0 0.0
2018-Jul-11 00:30N 44°10' E 028°39'0 0.0
2018-Jul-10 23:57N 44°10' E 028°39'0 0.0
2018-Jul-10 23:30N 44°10' E 028°39'0 0.0
2018-Jul-10 23:00N 44°10' E 028°39'0 0.0
2018-Jul-10 22:30N 44°10' E 028°39'0 0.0
2018-Jul-10 22:00N 44°10' E 028°39'0 0.0
2018-Jul-10 21:30N 44°10' E 028°39'0 0.0
2018-Jul-10 21:00N 44°10' E 028°39'0 0.0
2018-Jul-10 20:30N 44°10' E 028°39'0 0.0
2018-Jul-10 20:00N 44°10' E 028°39'0 0.0
2018-Jul-10 19:30N 44°10' E 028°39'0 0.0
2018-Jul-10 18:54N 44°10' E 028°39'0 0.0
2018-Jul-10 18:30N 44°10' E 028°39'0 0.0
2018-Jul-10 18:00N 44°10' E 028°39'0 0.0
2018-Jul-10 17:30N 44°10' E 028°39'0 0.0
2018-Jul-10 17:00N 44°10' E 028°39'0 0.0
2018-Jul-10 16:30N 44°10' E 028°39'0 0.0
2018-Jul-10 16:00N 44°10' E 028°39'0 0.0
2018-Jul-10 15:30N 44°10' E 028°39'0 0.0
2018-Jul-10 15:00N 44°10' E 028°39'0 0.0
2018-Jul-10 14:30N 44°10' E 028°39'0 0.0
2018-Jul-10 14:00N 44°10' E 028°39'0 0.0
2018-Jul-10 13:30N 44°10' E 028°39'0 0.0
2018-Jul-10 13:00N 44°10' E 028°39'0 0.0
2018-Jul-10 12:30N 44°10' E 028°39'0 0.0
2018-Jul-10 12:00N 44°10' E 028°39'0 0.0
2018-Jul-10 11:30N 44°10' E 028°39'0 0.0
2018-Jul-10 11:00N 44°10' E 028°39'0 0.0
2018-Jul-10 10:30N 44°10' E 028°39'0 0.0
2018-Jul-10 10:00N 44°10' E 028°39'0 0.0
2018-Jul-10 09:27N 44°10' E 028°39'0 0.0
2018-Jul-10 09:00N 44°10' E 028°39'0 0.0
2018-Jul-10 08:30N 44°10' E 028°39'0 0.0
2018-Jul-10 08:00N 44°10' E 028°39'0 0.0
2018-Jul-10 07:30N 44°10' E 028°39'0 0.0
2018-Jul-10 07:00N 44°10' E 028°39'0 0.0
2018-Jul-10 06:30N 44°10' E 028°39'0 0.0
2018-Jul-10 06:00N 44°10' E 028°39'0 0.0
2018-Jul-10 05:30N 44°10' E 028°39'0 0.0
2018-Jul-10 05:00N 44°10' E 028°39'0 0.0
2018-Jul-10 04:30N 44°10' E 028°39'0 0.0
2018-Jul-10 04:00N 44°10' E 028°39'0 0.0
2018-Jul-10 03:30N 44°10' E 028°39'0 0.0
2018-Jul-10 03:00N 44°10' E 028°39'0 0.0
2018-Jul-10 02:30N 44°10' E 028°39'0 0.0
2018-Jul-10 02:00N 44°10' E 028°39'0 0.0
2018-Jul-10 01:30N 44°10' E 028°39'0 0.0
2018-Jul-10 01:00N 44°10' E 028°39'0 0.0
2018-Jul-10 00:30N 44°10' E 028°39'0 0.0
2018-Jul-10 00:00N 44°10' E 028°39'0 0.0
2018-Jul-09 23:30N 44°10' E 028°39'0 0.0
2018-Jul-09 23:00N 44°10' E 028°39'0 0.0
2018-Jul-09 22:30N 44°10' E 028°39'0 0.0
2018-Jul-09 22:00N 44°10' E 028°39'0 0.0
2018-Jul-09 21:30N 44°10' E 028°39'0 0.0
2018-Jul-09 21:00N 44°10' E 028°39'0 0.0
2018-Jul-09 20:30N 44°10' E 028°39'0 0.0
2018-Jul-09 20:00N 44°10' E 028°39'0 0.0
2018-Jul-09 19:30N 44°10' E 028°39'0 0.0
2018-Jul-09 19:00N 44°10' E 028°39'0 0.0
2018-Jul-09 18:30N 44°10' E 028°39'0 0.0
2018-Jul-09 18:00N 44°10' E 028°39'0 0.0
2018-Jul-09 17:30N 44°10' E 028°39'0 0.0
2018-Jul-09 17:00N 44°10' E 028°39'0 0.0
2018-Jul-09 16:30N 44°10' E 028°39'0 0.0
2018-Jul-09 16:00N 44°10' E 028°39'0 0.0
2018-Jul-09 15:30N 44°10' E 028°39'0 0.0
2018-Jul-09 15:00N 44°10' E 028°39'0 0.0
2018-Jul-09 14:30N 44°10' E 028°39'0 0.0
2018-Jul-09 14:00N 44°10' E 028°39'0 0.0
2018-Jul-09 13:30N 44°10' E 028°39'0 0.0
2018-Jul-09 13:00N 44°10' E 028°39'0 0.0
2018-Jul-09 12:30N 44°10' E 028°39'0 0.0
2018-Jul-09 12:00N 44°10' E 028°39'0 0.2
2018-Jul-09 11:30N 44°10' E 028°39'0 0.0
2018-Jul-09 11:00N 44°10' E 028°39'0 0.0
2018-Jul-09 10:30N 44°10' E 028°39'0 0.0
2018-Jul-09 09:57N 44°10' E 028°39'0 0.0
2018-Jul-09 09:30N 44°10' E 028°39'0 0.0
2018-Jul-09 09:00N 44°10' E 028°39'0 0.0
2018-Jul-09 08:30N 44°10' E 028°39'0 0.0
2018-Jul-09 08:00N 44°10' E 028°39'0 0.0
2018-Jul-09 07:30N 44°10' E 028°39'0 0.0
2018-Jul-09 07:00N 44°10' E 028°39'0 0.0
2018-Jul-09 06:30N 44°10' E 028°39'0 0.0
2018-Jul-09 06:00N 44°10' E 028°39'0 0.0
2018-Jul-09 05:30N 44°10' E 028°39'0 0.0
2018-Jul-09 05:00N 44°10' E 028°39'0 0.0
2018-Jul-09 04:30N 44°10' E 028°39'0 0.0
2018-Jul-09 04:00N 44°10' E 028°39'0 0.0
2018-Jul-09 03:30N 44°10' E 028°39'0 0.0
2018-Jul-09 03:00N 44°10' E 028°39'0 0.0
2018-Jul-09 02:30N 44°10' E 028°39'0 0.0
2018-Jul-09 02:00N 44°10' E 028°39'0 0.0
2018-Jul-09 01:30N 44°10' E 028°39'0 0.0
2018-Jul-09 01:00N 44°10' E 028°39'0 0.0
2018-Jul-09 00:30N 44°10' E 028°39'0 0.0
2018-Jul-09 00:00N 44°10' E 028°39'0 0.0
2018-Jul-08 23:30N 44°10' E 028°39'0 0.0
2018-Jul-08 23:00N 44°10' E 028°39'0 0.0
2018-Jul-08 22:30N 44°10' E 028°39'0 0.0
2018-Jul-08 21:54N 44°10' E 028°39'0 0.0
2018-Jul-08 21:30N 44°10' E 028°39'0 0.0
2018-Jul-08 21:00N 44°10' E 028°39'0 0.0
2018-Jul-08 20:30N 44°10' E 028°39'0 0.0
2018-Jul-08 19:57N 44°10' E 028°39'0 0.0
2018-Jul-08 19:30N 44°10' E 028°39'0 0.0
2018-Jul-08 19:00N 44°10' E 028°39'0 0.0
2018-Jul-08 18:28N 44°10' E 028°39'0 0.0
2018-Jul-08 17:58N 44°10' E 028°39'0 0.0
2018-Jul-08 17:25N 44°10' E 028°39'0 0.0
2018-Jul-08 16:58N 44°10' E 028°39'0 0.0
2018-Jul-08 16:28N 44°10' E 028°39'0 0.0
2018-Jul-08 15:58N 44°10' E 028°39'0 0.0
2018-Jul-08 15:28N 44°10' E 028°39'0 0.0
2018-Jul-08 14:58N 44°10' E 028°39'0 0.0
2018-Jul-08 14:28N 44°10' E 028°39'0 0.0
2018-Jul-08 13:58N 44°10' E 028°39'0 0.0
2018-Jul-08 13:28N 44°10' E 028°39'0 0.0
2018-Jul-08 13:00N 44°10' E 028°39'0 0.0
2018-Jul-08 12:28N 44°10' E 028°39'0 0.0
2018-Jul-08 11:58N 44°10' E 028°39'0 0.0
2018-Jul-08 11:25N 44°10' E 028°39'0 0.0
2018-Jul-08 10:58N 44°10' E 028°39'0 0.0
2018-Jul-08 10:28N 44°10' E 028°39'0 0.0
2018-Jul-08 09:58N 44°10' E 028°39'0 0.0
2018-Jul-08 09:28N 44°10' E 028°39'0 0.0
2018-Jul-08 08:58N 44°10' E 028°39'0 0.0
2018-Jul-08 08:28N 44°10' E 028°39'0 0.0
2018-Jul-08 07:58N 44°10' E 028°39'0 0.0
2018-Jul-08 07:28N 44°10' E 028°39'0 0.0
2018-Jul-08 06:58N 44°10' E 028°39'0 0.0
2018-Jul-08 06:28N 44°10' E 028°39'0 0.0
2018-Jul-08 05:58N 44°10' E 028°39'0 0.0
2018-Jul-08 05:28N 44°10' E 028°39'0 0.0
2018-Jul-08 04:58N 44°10' E 028°39'0 0.0
2018-Jul-08 04:28N 44°10' E 028°39'0 0.0
2018-Jul-08 03:58N 44°10' E 028°39'0 0.0
2018-Jul-08 03:28N 44°10' E 028°39'0 0.0
2018-Jul-08 02:58N 44°10' E 028°39'0 0.0
2018-Jul-08 02:28N 44°10' E 028°39'0 0.0
2018-Jul-08 01:58N 44°10' E 028°39'0 0.0
2018-Jul-08 01:28N 44°10' E 028°39'0 0.0
2018-Jul-08 01:00N 44°10' E 028°39'0 0.0
2018-Jul-08 00:30N 44°10' E 028°39'0 0.0
2018-Jul-08 00:00N 44°10' E 028°39'0 0.0
2018-Jul-07 23:30N 44°10' E 028°39'0 0.0
2018-Jul-07 23:00N 44°10' E 028°39'0 0.0
2018-Jul-07 22:30N 44°10' E 028°39'0 0.0
2018-Jul-07 22:00N 44°10' E 028°39'0 0.0
2018-Jul-07 21:30N 44°10' E 028°39'0 0.0
2018-Jul-07 21:00N 44°10' E 028°39'0 0.0
2018-Jul-07 20:30N 44°10' E 028°39'0 0.0
2018-Jul-07 20:00N 44°10' E 028°39'0 0.0
2018-Jul-07 19:30N 44°10' E 028°39'0 0.0
2018-Jul-07 19:00N 44°10' E 028°39'0 0.0
2018-Jul-07 18:30N 44°10' E 028°39'0 0.0
2018-Jul-07 17:57N 44°10' E 028°39'0 0.0
2018-Jul-07 17:30N 44°10' E 028°39'0 0.0
2018-Jul-07 16:58N 44°10' E 028°39'0 0.0
2018-Jul-07 16:30N 44°10' E 028°39'0 0.0
2018-Jul-07 16:00N 44°10' E 028°39'0 0.0
2018-Jul-07 15:30N 44°10' E 028°39'0 0.0
2018-Jul-07 15:00N 44°10' E 028°39'0 0.0
2018-Jul-07 14:30N 44°10' E 028°39'0 0.0
2018-Jul-07 14:00N 44°10' E 028°39'0 0.0
2018-Jul-07 13:30N 44°10' E 028°39'0 0.0
2018-Jul-07 13:00N 44°10' E 028°39'0 0.0
2018-Jul-07 12:27N 44°10' E 028°39'0 0.0
2018-Jul-07 12:00N 44°10' E 028°39'0 0.0
2018-Jul-07 11:30N 44°10' E 028°39'0 0.0
2018-Jul-07 11:00N 44°10' E 028°39'0 0.0
2018-Jul-07 10:30N 44°10' E 028°39'0 0.0
2018-Jul-07 10:00N 44°10' E 028°39'0 0.0
2018-Jul-07 09:30N 44°10' E 028°39'0 0.0
2018-Jul-07 09:00N 44°10' E 028°39'0 0.0
2018-Jul-07 08:30N 44°10' E 028°39'0 0.0
2018-Jul-07 08:00N 44°10' E 028°39'0 0.0
2018-Jul-07 07:30N 44°10' E 028°39'0 0.0
2018-Jul-07 07:00N 44°10' E 028°39'0 0.0
2018-Jul-07 06:30N 44°10' E 028°39'0 0.0
2018-Jul-07 06:00N 44°10' E 028°39'0 0.0
2018-Jul-07 05:30N 44°10' E 028°39'0 0.0
2018-Jul-07 05:00N 44°10' E 028°39'0 0.0
2018-Jul-07 04:30N 44°10' E 028°39'0 0.0
2018-Jul-07 04:00N 44°10' E 028°39'0 0.0
2018-Jul-07 03:30N 44°10' E 028°39'0 0.0
2018-Jul-07 03:00N 44°10' E 028°39'0 0.0
2018-Jul-07 02:30N 44°10' E 028°39'0 0.0
2018-Jul-07 02:00N 44°10' E 028°39'0 0.0
2018-Jul-07 01:30N 44°10' E 028°39'0 0.0
2018-Jul-07 01:00N 44°10' E 028°39'0 0.0
2018-Jul-07 00:25N 44°10' E 028°39'0 0.0
2018-Jul-06 23:58N 44°10' E 028°39'0 0.0
2018-Jul-06 23:28N 44°10' E 028°39'0 0.0
2018-Jul-06 22:58N 44°10' E 028°39'0 0.0
2018-Jul-06 22:28N 44°10' E 028°39'0 0.0
2018-Jul-06 21:58N 44°10' E 028°39'0 0.0
2018-Jul-06 21:28N 44°10' E 028°39'0 0.0
2018-Jul-06 20:58N 44°10' E 028°39'0 0.0
2018-Jul-06 20:28N 44°10' E 028°39'0 0.0
2018-Jul-06 19:58N 44°10' E 028°39'0 0.0
2018-Jul-06 19:28N 44°10' E 028°39'0 0.0
2018-Jul-06 18:58N 44°10' E 028°39'0 0.0
2018-Jul-06 18:28N 44°10' E 028°39'0 0.0
2018-Jul-06 17:58N 44°10' E 028°39'0 0.0
2018-Jul-06 17:28N 44°10' E 028°39'0 0.0
2018-Jul-06 16:58N 44°10' E 028°39'0 0.0
2018-Jul-06 16:28N 44°10' E 028°39'0 0.0
2018-Jul-06 15:58N 44°10' E 028°39'0 0.0
2018-Jul-06 15:28N 44°10' E 028°39'0 0.0
2018-Jul-06 14:58N 44°10' E 028°39'0 0.0
2018-Jul-06 14:28N 44°10' E 028°39'0 0.0
2018-Jul-06 13:58N 44°10' E 028°39'0 0.0
2018-Jul-06 13:28N 44°10' E 028°39'0 0.0
2018-Jul-06 12:58N 44°10' E 028°39'0 0.0
2018-Jul-06 12:28N 44°10' E 028°39'0 0.0
2018-Jul-06 11:58N 44°10' E 028°39'0 0.0
2018-Jul-06 11:28N 44°10' E 028°39'0 0.0
2018-Jul-06 10:58N 44°10' E 028°39'0 0.0
2018-Jul-06 10:28N 44°10' E 028°39'0 0.0
2018-Jul-06 09:58N 44°10' E 028°39'0 0.0
2018-Jul-06 09:28N 44°10' E 028°39'0 0.0
2018-Jul-06 08:58N 44°10' E 028°39'0 0.0
2018-Jul-06 08:28N 44°10' E 028°39'0 0.0
2018-Jul-06 07:58N 44°10' E 028°39'0 0.0
2018-Jul-06 07:28N 44°10' E 028°39'0 0.0
2018-Jul-06 06:58N 44°10' E 028°39'0 0.0
2018-Jul-06 06:28N 44°10' E 028°39'0 0.0
2018-Jul-06 05:58N 44°10' E 028°39'0 0.0
2018-Jul-06 05:28N 44°10' E 028°39'0 0.0
2018-Jul-06 04:58N 44°10' E 028°39'  
Track history (hours):
 
Tides and Currents Weather Stations Pressure Air Temp Water Temp Dewpoint Dewpoint Depression Visibility Wind Speed Wind Dir Waves Ship Positions

Abo Alyssa

Last reported at 2018-Jul-16 04:42 UTC. Time now 2018-Jul-16 15:58 UTC.
Position N 39°51' E 025°47'.

Length 95 m; draft 4.6 m.

Type: Cargo ship. MMSI: 214182655.

Date/timePositionNaut miles runAvg speedWind from/ knotsBaromVisibWave heightAir tempDewpointWater temp
2018-Jul-16 04:42N 39°51' E 025°47'210.2
2018-Jul-16 04:30N 39°53' E 025°49'5 9.8
2018-Jul-16 04:00N 39°56' E 025°53'173 4.7
2018-Jul-14 15:30N 41°48' E 028°48'4 9.0
2018-Jul-14 15:00N 41°52' E 028°46'5 8.9
2018-Jul-14 14:29N 41°56' E 028°43'9 8.8
2018-Jul-14 13:30N 42°04' E 028°38'54 8.8
2018-Jul-14 07:24N 42°53' E 028°09'4 9.5
2018-Jul-14 07:00N 42°57' E 028°07'5 9.4
2018-Jul-14 06:30N 43°01' E 028°05'5 9.4
2018-Jul-14 06:00N 43°05' E 028°02'5 9.6
2018-Jul-14 05:29N 43°10' E 027°59'2 0.0
2018-Jul-12 01:55N 43°11' E 027°57'1 2.3
2018-Jul-12 01:29N 43°11' E 027°58'1 2.9
2018-Jul-12 01:00N 43°12' E 027°60'0 0.8
2018-Jul-12 00:30N 43°11' E 027°59'1 1.1
2018-Jul-12 00:00N 43°12' E 027°60'5 9.3
2018-Jul-11 23:30N 43°14' E 028°06'5 9.5
2018-Jul-11 22:59N 43°15' E 028°12'5 9.6
2018-Jul-11 22:30N 43°17' E 028°18'15 9.4
2018-Jul-11 20:55N 43°26' E 028°35'4 9.9
2018-Jul-11 20:30N 43°28' E 028°39'5 9.6
2018-Jul-11 20:00N 43°31' E 028°45'4 9.0
2018-Jul-11 19:30N 43°34' E 028°49'4 8.9
2018-Jul-11 19:00N 43°38' E 028°50'5 9.4
2018-Jul-11 18:30N 43°43' E 028°50'5 9.5
2018-Jul-11 18:00N 43°48' E 028°50'5 9.5
2018-Jul-11 17:30N 43°52' E 028°49'5 9.3
2018-Jul-11 17:00N 43°57' E 028°49'5 9.0
2018-Jul-11 16:30N 44°01' E 028°46'5 9.0
2018-Jul-11 16:00N 44°05' E 028°43'3 6.4
2018-Jul-11 15:30N 44°08' E 028°41'2 4.9
2018-Jul-11 15:00N 44°10' E 028°39'0 0.6
2018-Jul-11 14:30N 44°10' E 028°39'0 0.0
2018-Jul-11 14:00N 44°10' E 028°39'0 0.0
2018-Jul-11 13:30N 44°10' E 028°39'0 0.0
2018-Jul-11 13:00N 44°10' E 028°39'0 0.0
2018-Jul-11 12:30N 44°10' E 028°39'0 0.0
2018-Jul-11 12:00N 44°10' E 028°39'0 0.0
2018-Jul-11 11:30N 44°10' E 028°39'0 0.0
2018-Jul-11 11:00N 44°10' E 028°39'0 0.0
2018-Jul-11 10:30N 44°10' E 028°39'0 0.0
2018-Jul-11 10:00N 44°10' E 028°39'0 0.0
2018-Jul-11 09:30N 44°10' E 028°39'0 0.0
2018-Jul-11 09:00N 44°10' E 028°39'0 0.0
2018-Jul-11 08:30N 44°10' E 028°39'0 0.0
2018-Jul-11 08:00N 44°10' E 028°39'0 0.0
2018-Jul-11 07:30N 44°10' E 028°39'0 0.0
2018-Jul-11 07:00N 44°10' E 028°39'0 0.0
2018-Jul-11 06:30N 44°10' E 028°39'0 0.0
2018-Jul-11 06:00N 44°10' E 028°39'0 0.0
2018-Jul-11 05:30N 44°10' E 028°39'0 0.0
2018-Jul-11 05:00N 44°10' E 028°39'0 0.0
2018-Jul-11 04:30N 44°10' E 028°39'0 0.0
2018-Jul-11 04:00N 44°10' E 028°39'0 0.0
2018-Jul-11 03:30N 44°10' E 028°39'0 0.0
2018-Jul-11 03:00N 44°10' E 028°39'0 0.0
2018-Jul-11 02:30N 44°10' E 028°39'0 0.0
2018-Jul-11 02:00N 44°10' E 028°39'0 0.0
2018-Jul-11 01:30N 44°10' E 028°39'0 0.0
2018-Jul-11 01:00N 44°10' E 028°39'0 0.0
2018-Jul-11 00:30N 44°10' E 028°39'0 0.0
2018-Jul-10 23:57N 44°10' E 028°39'0 0.0
2018-Jul-10 23:30N 44°10' E 028°39'0 0.0
2018-Jul-10 23:00N 44°10' E 028°39'0 0.0
2018-Jul-10 22:30N 44°10' E 028°39'0 0.0
2018-Jul-10 22:00N 44°10' E 028°39'0 0.0
2018-Jul-10 21:30N 44°10' E 028°39'0 0.0
2018-Jul-10 21:00N 44°10' E 028°39'0 0.0
2018-Jul-10 20:30N 44°10' E 028°39'0 0.0
2018-Jul-10 20:00N 44°10' E 028°39'0 0.0
2018-Jul-10 19:30N 44°10' E 028°39'0 0.0
2018-Jul-10 18:54N 44°10' E 028°39'0 0.0
2018-Jul-10 18:30N 44°10' E 028°39'0 0.0
2018-Jul-10 18:00N 44°10' E 028°39'0 0.0
2018-Jul-10 17:30N 44°10' E 028°39'0 0.0
2018-Jul-10 17:00N 44°10' E 028°39'0 0.0
2018-Jul-10 16:30N 44°10' E 028°39'0 0.0
2018-Jul-10 16:00N 44°10' E 028°39'0 0.0
2018-Jul-10 15:30N 44°10' E 028°39'0 0.0
2018-Jul-10 15:00N 44°10' E 028°39'0 0.0
2018-Jul-10 14:30N 44°10' E 028°39'0 0.0
2018-Jul-10 14:00N 44°10' E 028°39'0 0.0
2018-Jul-10 13:30N 44°10' E 028°39'0 0.0
2018-Jul-10 13:00N 44°10' E 028°39'0 0.0
2018-Jul-10 12:30N 44°10' E 028°39'0 0.0
2018-Jul-10 12:00N 44°10' E 028°39'0 0.0
2018-Jul-10 11:30N 44°10' E 028°39'0 0.0
2018-Jul-10 11:00N 44°10' E 028°39'0 0.0
2018-Jul-10 10:30N 44°10' E 028°39'0 0.0
2018-Jul-10 10:00N 44°10' E 028°39'0 0.0
2018-Jul-10 09:27N 44°10' E 028°39'0 0.0
2018-Jul-10 09:00N 44°10' E 028°39'0 0.0
2018-Jul-10 08:30N 44°10' E 028°39'0 0.0
2018-Jul-10 08:00N 44°10' E 028°39'0 0.0
2018-Jul-10 07:30N 44°10' E 028°39'0 0.0
2018-Jul-10 07:00N 44°10' E 028°39'0 0.0
2018-Jul-10 06:30N 44°10' E 028°39'0 0.0
2018-Jul-10 06:00N 44°10' E 028°39'0 0.0
2018-Jul-10 05:30N 44°10' E 028°39'0 0.0
2018-Jul-10 05:00N 44°10' E 028°39'0 0.0
2018-Jul-10 04:30N 44°10' E 028°39'0 0.0
2018-Jul-10 04:00N 44°10' E 028°39'0 0.0
2018-Jul-10 03:30N 44°10' E 028°39'0 0.0
2018-Jul-10 03:00N 44°10' E 028°39'0 0.0
2018-Jul-10 02:30N 44°10' E 028°39'0 0.0
2018-Jul-10 02:00N 44°10' E 028°39'0 0.0
2018-Jul-10 01:30N 44°10' E 028°39'0 0.0
2018-Jul-10 01:00N 44°10' E 028°39'0 0.0
2018-Jul-10 00:30N 44°10' E 028°39'0 0.0
2018-Jul-10 00:00N 44°10' E 028°39'0 0.0
2018-Jul-09 23:30N 44°10' E 028°39'0 0.0
2018-Jul-09 23:00N 44°10' E 028°39'0 0.0
2018-Jul-09 22:30N 44°10' E 028°39'0 0.0
2018-Jul-09 22:00N 44°10' E 028°39'0 0.0
2018-Jul-09 21:30N 44°10' E 028°39'0 0.0
2018-Jul-09 21:00N 44°10' E 028°39'0 0.0
2018-Jul-09 20:30N 44°10' E 028°39'0 0.0
2018-Jul-09 20:00N 44°10' E 028°39'0 0.0
2018-Jul-09 19:30N 44°10' E 028°39'0 0.0
2018-Jul-09 19:00N 44°10' E 028°39'0 0.0
2018-Jul-09 18:30N 44°10' E 028°39'0 0.0
2018-Jul-09 18:00N 44°10' E 028°39'0 0.0
2018-Jul-09 17:30N 44°10' E 028°39'0 0.0
2018-Jul-09 17:00N 44°10' E 028°39'0 0.0
2018-Jul-09 16:30N 44°10' E 028°39'0 0.0
2018-Jul-09 16:00N 44°10' E 028°39'0 0.0
2018-Jul-09 15:30N 44°10' E 028°39'0 0.0
2018-Jul-09 15:00N 44°10' E 028°39'0 0.0
2018-Jul-09 14:30N 44°10' E 028°39'0 0.0
2018-Jul-09 14:00N 44°10' E 028°39'0 0.0
2018-Jul-09 13:30N 44°10' E 028°39'0 0.0
2018-Jul-09 13:00N 44°10' E 028°39'0 0.0
2018-Jul-09 12:30N 44°10' E 028°39'0 0.0
2018-Jul-09 12:00N 44°10' E 028°39'0 0.2
2018-Jul-09 11:30N 44°10' E 028°39'0 0.0
2018-Jul-09 11:00N 44°10' E 028°39'0 0.0
2018-Jul-09 10:30N 44°10' E 028°39'0 0.0
2018-Jul-09 09:57N 44°10' E 028°39'0 0.0
2018-Jul-09 09:30N 44°10' E 028°39'0 0.0
2018-Jul-09 09:00N 44°10' E 028°39'0 0.0
2018-Jul-09 08:30N 44°10' E 028°39'0 0.0
2018-Jul-09 08:00N 44°10' E 028°39'0 0.0
2018-Jul-09 07:30N 44°10' E 028°39'0 0.0
2018-Jul-09 07:00N 44°10' E 028°39'0 0.0
2018-Jul-09 06:30N 44°10' E 028°39'0 0.0
2018-Jul-09 06:00N 44°10' E 028°39'0 0.0
2018-Jul-09 05:30N 44°10' E 028°39'0 0.0
2018-Jul-09 05:00N 44°10' E 028°39'0 0.0
2018-Jul-09 04:30N 44°10' E 028°39'0 0.0
2018-Jul-09 04:00N 44°10' E 028°39'0 0.0
2018-Jul-09 03:30N 44°10' E 028°39'0 0.0
2018-Jul-09 03:00N 44°10' E 028°39'0 0.0
2018-Jul-09 02:30N 44°10' E 028°39'0 0.0
2018-Jul-09 02:00N 44°10' E 028°39'0 0.0
2018-Jul-09 01:30N 44°10' E 028°39'0 0.0
2018-Jul-09 01:00N 44°10' E 028°39'0 0.0
2018-Jul-09 00:30N 44°10' E 028°39'0 0.0
2018-Jul-09 00:00N 44°10' E 028°39'0 0.0
2018-Jul-08 23:30N 44°10' E 028°39'0 0.0
2018-Jul-08 23:00N 44°10' E 028°39'0 0.0
2018-Jul-08 22:30N 44°10' E 028°39'0 0.0
2018-Jul-08 21:54N 44°10' E 028°39'0 0.0
2018-Jul-08 21:30N 44°10' E 028°39'0 0.0
2018-Jul-08 21:00N 44°10' E 028°39'0 0.0
2018-Jul-08 20:30N 44°10' E 028°39'0 0.0
2018-Jul-08 19:57N 44°10' E 028°39'0 0.0
2018-Jul-08 19:30N 44°10' E 028°39'0 0.0
2018-Jul-08 19:00N 44°10' E 028°39'0 0.0
2018-Jul-08 18:28N 44°10' E 028°39'0 0.0
2018-Jul-08 17:58N 44°10' E 028°39'0 0.0
2018-Jul-08 17:25N 44°10' E 028°39'0 0.0
2018-Jul-08 16:58N 44°10' E 028°39'0 0.0
2018-Jul-08 16:28N 44°10' E 028°39'0 0.0
2018-Jul-08 15:58N 44°10' E 028°39'0 0.0
2018-Jul-08 15:28N 44°10' E 028°39'0 0.0
2018-Jul-08 14:58N 44°10' E 028°39'0 0.0
2018-Jul-08 14:28N 44°10' E 028°39'0 0.0
2018-Jul-08 13:58N 44°10' E 028°39'0 0.0
2018-Jul-08 13:28N 44°10' E 028°39'0 0.0
2018-Jul-08 13:00N 44°10' E 028°39'0 0.0
2018-Jul-08 12:28N 44°10' E 028°39'0 0.0
2018-Jul-08 11:58N 44°10' E 028°39'0 0.0
2018-Jul-08 11:25N 44°10' E 028°39'0 0.0
2018-Jul-08 10:58N 44°10' E 028°39'0 0.0
2018-Jul-08 10:28N 44°10' E 028°39'0 0.0
2018-Jul-08 09:58N 44°10' E 028°39'0 0.0
2018-Jul-08 09:28N 44°10' E 028°39'0 0.0
2018-Jul-08 08:58N 44°10' E 028°39'0 0.0
2018-Jul-08 08:28N 44°10' E 028°39'0 0.0
2018-Jul-08 07:58N 44°10' E 028°39'0 0.0
2018-Jul-08 07:28N 44°10' E 028°39'0 0.0
2018-Jul-08 06:58N 44°10' E 028°39'0 0.0
2018-Jul-08 06:28N 44°10' E 028°39'0 0.0
2018-Jul-08 05:58N 44°10' E 028°39'0 0.0
2018-Jul-08 05:28N 44°10' E 028°39'0 0.0
2018-Jul-08 04:58N 44°10' E 028°39'0 0.0
2018-Jul-08 04:28N 44°10' E 028°39'0 0.0
2018-Jul-08 03:58N 44°10' E 028°39'0 0.0
2018-Jul-08 03:28N 44°10' E 028°39'0 0.0
2018-Jul-08 02:58N 44°10' E 028°39'0 0.0
2018-Jul-08 02:28N 44°10' E 028°39'0 0.0
2018-Jul-08 01:58N 44°10' E 028°39'0 0.0
2018-Jul-08 01:28N 44°10' E 028°39'0 0.0
2018-Jul-08 01:00N 44°10' E 028°39'0 0.0
2018-Jul-08 00:30N 44°10' E 028°39'0 0.0
2018-Jul-08 00:00N 44°10' E 028°39'0 0.0
2018-Jul-07 23:30N 44°10' E 028°39'0 0.0
2018-Jul-07 23:00N 44°10' E 028°39'0 0.0
2018-Jul-07 22:30N 44°10' E 028°39'0 0.0
2018-Jul-07 22:00N 44°10' E 028°39'0 0.0
2018-Jul-07 21:30N 44°10' E 028°39'0 0.0
2018-Jul-07 21:00N 44°10' E 028°39'0 0.0
2018-Jul-07 20:30N 44°10' E 028°39'0 0.0
2018-Jul-07 20:00N 44°10' E 028°39'0 0.0
2018-Jul-07 19:30N 44°10' E 028°39'0 0.0
2018-Jul-07 19:00N 44°10' E 028°39'0 0.0
2018-Jul-07 18:30N 44°10' E 028°39'0 0.0
2018-Jul-07 17:57N 44°10' E 028°39'0 0.0
2018-Jul-07 17:30N 44°10' E 028°39'0 0.0
2018-Jul-07 16:58N 44°10' E 028°39'0 0.0
2018-Jul-07 16:30N 44°10' E 028°39'0 0.0
2018-Jul-07 16:00N 44°10' E 028°39'0 0.0
2018-Jul-07 15:30N 44°10' E 028°39'0 0.0
2018-Jul-07 15:00N 44°10' E 028°39'0 0.0
2018-Jul-07 14:30N 44°10' E 028°39'0 0.0
2018-Jul-07 14:00N 44°10' E 028°39'0 0.0
2018-Jul-07 13:30N 44°10' E 028°39'0 0.0
2018-Jul-07 13:00N 44°10' E 028°39'0 0.0
2018-Jul-07 12:27N 44°10' E 028°39'0 0.0
2018-Jul-07 12:00N 44°10' E 028°39'0 0.0
2018-Jul-07 11:30N 44°10' E 028°39'0 0.0
2018-Jul-07 11:00N 44°10' E 028°39'0 0.0
2018-Jul-07 10:30N 44°10' E 028°39'0 0.0
2018-Jul-07 10:00N 44°10' E 028°39'0 0.0
2018-Jul-07 09:30N 44°10' E 028°39'0 0.0
2018-Jul-07 09:00N 44°10' E 028°39'0 0.0
2018-Jul-07 08:30N 44°10' E 028°39'0 0.0
2018-Jul-07 08:00N 44°10' E 028°39'0 0.0
2018-Jul-07 07:30N 44°10' E 028°39'0 0.0
2018-Jul-07 07:00N 44°10' E 028°39'0 0.0
2018-Jul-07 06:30N 44°10' E 028°39'0 0.0
2018-Jul-07 06:00N 44°10' E 028°39'0 0.0
2018-Jul-07 05:30N 44°10' E 028°39'0 0.0
2018-Jul-07 05:00N 44°10' E 028°39'0 0.0
2018-Jul-07 04:30N 44°10' E 028°39'0 0.0
2018-Jul-07 04:00N 44°10' E 028°39'0 0.0
2018-Jul-07 03:30N 44°10' E 028°39'0 0.0
2018-Jul-07 03:00N 44°10' E 028°39'0 0.0
2018-Jul-07 02:30N 44°10' E 028°39'0 0.0
2018-Jul-07 02:00N 44°10' E 028°39'0 0.0
2018-Jul-07 01:30N 44°10' E 028°39'0 0.0
2018-Jul-07 01:00N 44°10' E 028°39'0 0.0
2018-Jul-07 00:25N 44°10' E 028°39'0 0.0
2018-Jul-06 23:58N 44°10' E 028°39'0 0.0
2018-Jul-06 23:28N 44°10' E 028°39'0 0.0
2018-Jul-06 22:58N 44°10' E 028°39'0 0.0
2018-Jul-06 22:28N 44°10' E 028°39'0 0.0
2018-Jul-06 21:58N 44°10' E 028°39'0 0.0
2018-Jul-06 21:28N 44°10' E 028°39'0 0.0
2018-Jul-06 20:58N 44°10' E 028°39'0 0.0
2018-Jul-06 20:28N 44°10' E 028°39'0 0.0
2018-Jul-06 19:58N 44°10' E 028°39'0 0.0
2018-Jul-06 19:28N 44°10' E 028°39'0 0.0
2018-Jul-06 18:58N 44°10' E 028°39'0 0.0
2018-Jul-06 18:28N 44°10' E 028°39'0 0.0
2018-Jul-06 17:58N 44°10' E 028°39'0 0.0
2018-Jul-06 17:28N 44°10' E 028°39'0 0.0
2018-Jul-06 16:58N 44°10' E 028°39'0 0.0
2018-Jul-06 16:28N 44°10' E 028°39'0 0.0
2018-Jul-06 15:58N 44°10' E 028°39'0 0.0
2018-Jul-06 15:28N 44°10' E 028°39'0 0.0
2018-Jul-06 14:58N 44°10' E 028°39'0 0.0
2018-Jul-06 14:28N 44°10' E 028°39'0 0.0
2018-Jul-06 13:58N 44°10' E 028°39'0 0.0
2018-Jul-06 13:28N 44°10' E 028°39'0 0.0
2018-Jul-06 12:58N 44°10' E 028°39'0 0.0
2018-Jul-06 12:28N 44°10' E 028°39'0 0.0
2018-Jul-06 11:58N 44°10' E 028°39'0 0.0
2018-Jul-06 11:28N 44°10' E 028°39'0 0.0
2018-Jul-06 10:58N 44°10' E 028°39'0 0.0
2018-Jul-06 10:28N 44°10' E 028°39'0 0.0
2018-Jul-06 09:58N 44°10' E 028°39'0 0.0
2018-Jul-06 09:28N 44°10' E 028°39'0 0.0
2018-Jul-06 08:58N 44°10' E 028°39'0 0.0
2018-Jul-06 08:28N 44°10' E 028°39'0 0.0
2018-Jul-06 07:58N 44°10' E 028°39'0 0.0
2018-Jul-06 07:28N 44°10' E 028°39'0 0.0
2018-Jul-06 06:58N 44°10' E 028°39'0 0.0
2018-Jul-06 06:28N 44°10' E 028°39'0 0.0
2018-Jul-06 05:58N 44°10' E 028°39'0 0.0
2018-Jul-06 05:28N 44°10' E 028°39'0 0.0
2018-Jul-06 04:58N 44°10' E 028°39'  

Dump ship's entire track history